createdAt,value
2023-05-01T00:00:53.232Z,100204.22
2023-05-01T00:03:20.899Z,100210.41
2023-05-01T00:05:48.563Z,100202.34
2023-05-01T00:08:16.060Z,100201.75
2023-05-01T00:10:43.484Z,100203.09
2023-05-01T00:13:10.974Z,100209.16
2023-05-01T00:15:40.946Z,100197.53
2023-05-01T00:18:08.381Z,100200.09
2023-05-01T00:20:35.563Z,100198.22
2023-05-01T00:23:02.707Z,100204.09
2023-05-01T00:25:31.402Z,100206.84
2023-05-01T00:27:59.862Z,100189.87
2023-05-01T00:30:27.846Z,100202.19
2023-05-01T00:32:55.376Z,100205.59
2023-05-01T00:35:23.616Z,100198.81
2023-05-01T00:37:50.982Z,100200.28
2023-05-01T00:40:18.952Z,100195.06
2023-05-01T00:42:46.273Z,100199.00
2023-05-01T00:45:14.524Z,100196.63
2023-05-01T00:47:42.021Z,100196.97
2023-05-01T00:50:09.572Z,100198.84
2023-05-01T00:52:37.343Z,100203.09
2023-05-01T00:55:05.458Z,100206.72
2023-05-01T00:57:33.441Z,100206.84
2023-05-01T01:00:00.649Z,100203.28
2023-05-01T01:02:28.289Z,100210.09
2023-05-01T01:04:55.576Z,100210.72
2023-05-01T01:07:25.088Z,100207.00
2023-05-01T01:09:52.494Z,100204.22
2023-05-01T01:12:32.157Z,100209.59
2023-05-01T01:15:23.051Z,100208.69
2023-05-01T01:17:50.210Z,100208.53
2023-05-01T01:20:17.651Z,100204.53
2023-05-01T01:22:46.466Z,100202.72
2023-05-01T01:25:19.402Z,100202.53
2023-05-01T01:27:51.545Z,100196.97
2023-05-01T01:30:38.245Z,100195.41
2023-05-01T01:33:09.347Z,100194.13
2023-05-01T01:35:36.617Z,100190.59
2023-05-01T01:38:05.298Z,100191.53
2023-05-01T01:40:39.977Z,100182.91
2023-05-01T01:43:07.698Z,100185.44
2023-05-01T01:45:35.396Z,100185.44
2023-05-01T01:48:03.040Z,100190.22
2023-05-01T01:50:30.299Z,100193.69
2023-05-01T01:52:58.582Z,100193.06
2023-05-01T01:55:27.674Z,100179.31
2023-05-01T01:57:54.887Z,100190.16
2023-05-01T02:00:22.381Z,100202.94
2023-05-01T02:02:50.131Z,100199.84
2023-05-01T02:05:17.648Z,100196.00
2023-05-01T02:07:46.199Z,100194.94
2023-05-01T02:10:14.123Z,100196.03
2023-05-01T02:12:41.621Z,100191.78
2023-05-01T02:15:08.953Z,100180.28
2023-05-01T02:17:38.375Z,100192.06
2023-05-01T02:20:06.426Z,100186.53
2023-05-01T02:22:33.731Z,100188.75
2023-05-01T02:25:01.200Z,100180.88
2023-05-01T02:27:32.470Z,100192.59
2023-05-01T02:29:59.639Z,100190.81
2023-05-01T02:32:28.679Z,100191.56
2023-05-01T02:34:55.975Z,100188.66
2023-05-01T02:37:23.311Z,100184.75
2023-05-01T02:39:50.839Z,100187.16
2023-05-01T02:42:18.040Z,100190.97
2023-05-01T02:44:47.391Z,100187.91
2023-05-01T02:47:16.128Z,100190.56
2023-05-01T02:49:43.974Z,100193.56
2023-05-01T02:52:11.768Z,100198.56
2023-05-01T02:54:39.231Z,100191.09
2023-05-01T02:57:06.497Z,100196.75
2023-05-01T02:59:34.101Z,100196.22
2023-05-01T03:02:02.008Z,100195.44
2023-05-01T03:04:29.276Z,100199.16
2023-05-01T03:06:57.013Z,100200.69
2023-05-01T03:09:24.527Z,100199.81
2023-05-01T03:11:51.846Z,100199.09
2023-05-01T03:14:18.984Z,100204.72
2023-05-01T03:16:46.751Z,100204.91
2023-05-01T03:19:13.999Z,100210.66
2023-05-01T03:21:41.090Z,100208.69
2023-05-01T03:24:08.533Z,100206.13
2023-05-01T03:26:35.775Z,100207.22
2023-05-01T03:29:03.045Z,100207.44
2023-05-01T03:31:31.315Z,100207.53
2023-05-01T03:33:59.056Z,100204.88
2023-05-01T03:36:27.685Z,100207.47
2023-05-01T03:38:55.411Z,100215.84
2023-05-01T03:41:23.710Z,100207.97
2023-05-01T03:43:52.672Z,100205.81
2023-05-01T03:46:21.322Z,100210.16
2023-05-01T03:48:48.596Z,100211.78
2023-05-01T03:51:17.248Z,100210.41
2023-05-01T03:53:45.070Z,100205.72
2023-05-01T03:56:12.281Z,100199.16
2023-05-01T03:58:39.481Z,100200.09
2023-05-01T04:01:06.951Z,100213.69
2023-05-01T04:03:35.126Z,100205.56
2023-05-01T04:06:02.490Z,100208.47
2023-05-01T04:08:29.732Z,100210.31
2023-05-01T04:10:57.170Z,100204.81
2023-05-01T04:13:24.440Z,100206.13
2023-05-01T04:15:51.798Z,100205.53
2023-05-01T04:18:19.316Z,100202.84
2023-05-01T04:20:46.672Z,100207.47
2023-05-01T04:23:13.942Z,100207.09
2023-05-01T04:25:41.455Z,100208.66
2023-05-01T04:28:12.547Z,100207.25
2023-05-01T04:30:39.830Z,100213.72
2023-05-01T04:33:11.556Z,100219.09
2023-05-01T04:35:39.258Z,100213.28
2023-05-01T04:38:07.110Z,100217.69
2023-05-01T04:40:34.637Z,100212.81
2023-05-01T04:43:01.899Z,100219.72
2023-05-01T04:45:29.563Z,100220.78
2023-05-01T04:47:56.918Z,100222.09
2023-05-01T04:50:24.472Z,100222.22
2023-05-01T04:52:52.389Z,100224.91
2023-05-01T04:55:19.808Z,100222.22
2023-05-01T04:57:49.269Z,100223.97
2023-05-01T05:00:19.043Z,100224.25
2023-05-01T05:02:47.272Z,100224.97
2023-05-01T05:05:14.807Z,100231.78
2023-05-01T05:07:42.259Z,100225.53
2023-05-01T05:10:10.776Z,100228.03
2023-05-01T05:12:38.195Z,100224.47
2023-05-01T05:15:06.125Z,100224.16
2023-05-01T05:17:33.399Z,100231.91
2023-05-01T05:20:00.659Z,100227.06
2023-05-01T05:22:28.566Z,100231.78
2023-05-01T05:25:04.111Z,100232.75
2023-05-01T05:27:36.436Z,100226.38
2023-05-01T05:30:04.665Z,100226.50
2023-05-01T05:32:32.526Z,100228.38
2023-05-01T05:34:59.797Z,100233.72
2023-05-01T05:37:27.099Z,100236.28
2023-05-01T05:39:54.821Z,100234.41
2023-05-01T05:42:22.227Z,100230.59
2023-05-01T05:44:49.394Z,100240.59
2023-05-01T05:47:17.054Z,100236.03
2023-05-01T05:49:44.354Z,100241.13
2023-05-01T05:52:11.511Z,100247.34
2023-05-01T05:54:39.282Z,100251.31
2023-05-01T05:57:06.665Z,100244.78
2023-05-01T05:59:34.371Z,100245.62
2023-05-01T06:02:01.893Z,100239.59
2023-05-01T06:04:29.685Z,100245.56
2023-05-01T06:06:57.771Z,100252.34
2023-05-01T06:09:25.248Z,100245.34
2023-05-01T06:11:52.717Z,100258.38
2023-05-01T06:14:19.941Z,100249.50
2023-05-01T06:16:47.565Z,100252.50
2023-05-01T06:19:15.621Z,100249.16
2023-05-01T06:21:43.393Z,100253.87
2023-05-01T06:24:10.893Z,100250.63
2023-05-01T06:26:38.517Z,100253.44
2023-05-01T06:29:05.689Z,100262.62
2023-05-01T06:31:33.590Z,100255.97
2023-05-01T06:34:01.112Z,100261.53
2023-05-01T06:36:28.467Z,100261.28
2023-05-01T06:38:56.460Z,100265.13
2023-05-01T06:41:25.819Z,100264.84
2023-05-01T06:43:53.064Z,100267.63
2023-05-01T06:46:20.403Z,100264.75
2023-05-01T06:48:48.924Z,100259.84
2023-05-01T06:51:16.262Z,100256.41
2023-05-01T06:53:43.413Z,100258.22
2023-05-01T06:56:10.895Z,100257.63
2023-05-01T06:58:38.134Z,100247.66
2023-05-01T07:01:05.417Z,100262.31
2023-05-01T07:03:33.059Z,100267.78
2023-05-01T07:06:00.389Z,100248.41
2023-05-01T07:08:28.307Z,100254.97
2023-05-01T07:10:55.791Z,100251.59
2023-05-01T07:13:23.005Z,100245.34
2023-05-01T07:15:52.265Z,100252.53
2023-05-01T07:18:21.838Z,100253.59
2023-05-01T07:20:50.427Z,100258.09
2023-05-01T07:23:17.734Z,100244.97
2023-05-01T07:25:45.998Z,100253.78
2023-05-01T07:28:13.244Z,100248.47
2023-05-01T07:30:40.384Z,100247.25
2023-05-01T07:33:07.993Z,100254.37
2023-05-01T07:35:35.425Z,100246.94
2023-05-01T07:38:02.635Z,100241.88
2023-05-01T07:40:30.054Z,100246.87
2023-05-01T07:42:57.221Z,100236.47
2023-05-01T07:45:24.338Z,100250.22
2023-05-01T07:47:52.455Z,100244.59
2023-05-01T07:50:19.719Z,100242.59
2023-05-01T07:52:47.852Z,100245.22
2023-05-01T07:55:15.417Z,100239.16
2023-05-01T07:57:42.569Z,100244.63
2023-05-01T08:00:10.029Z,100245.06
2023-05-01T08:02:41.323Z,100242.06
2023-05-01T08:05:09.640Z,100237.56
2023-05-01T08:07:36.864Z,100237.81
2023-05-01T08:10:04.320Z,100240.81
2023-05-01T08:12:32.019Z,100246.00
2023-05-01T08:14:59.194Z,100238.56
2023-05-01T08:17:26.391Z,100243.47
2023-05-01T08:19:56.578Z,100238.13
2023-05-01T08:22:24.020Z,100239.47
2023-05-01T08:24:51.428Z,100244.66
2023-05-01T08:27:18.856Z,100244.28
2023-05-01T08:29:46.020Z,100238.06
2023-05-01T08:32:14.840Z,100253.28
2023-05-01T08:34:42.477Z,100249.00
2023-05-01T08:37:09.877Z,100242.50
2023-05-01T08:39:37.311Z,100243.75
2023-05-01T08:42:05.253Z,100246.50
2023-05-01T08:44:32.447Z,100234.84
2023-05-01T08:47:13.386Z,100234.03
2023-05-01T08:49:41.185Z,100235.66
2023-05-01T08:52:08.779Z,100239.31
2023-05-01T08:54:36.591Z,100237.16
2023-05-01T08:57:04.600Z,100239.44
2023-05-01T08:59:33.141Z,100242.03
2023-05-01T09:02:01.240Z,100240.53
2023-05-01T09:04:32.468Z,100247.50
2023-05-01T09:07:02.494Z,100243.97
2023-05-01T09:09:30.083Z,100245.88
2023-05-01T09:12:01.251Z,100244.09
2023-05-01T09:14:29.079Z,100242.34
2023-05-01T09:16:56.851Z,100232.59
2023-05-01T09:19:24.616Z,100228.19
2023-05-01T09:21:52.117Z,100233.50
2023-05-01T09:24:19.587Z,100231.75
2023-05-01T09:26:46.721Z,100230.78
2023-05-01T09:29:15.004Z,100229.72
2023-05-01T09:31:42.445Z,100228.84
2023-05-01T09:34:09.652Z,100223.69
2023-05-01T09:36:37.519Z,100232.56
2023-05-01T09:39:05.097Z,100229.06
2023-05-01T09:41:33.508Z,100234.38
2023-05-01T09:44:01.586Z,100229.94
2023-05-01T09:46:29.635Z,100225.56
2023-05-01T09:48:58.769Z,100232.59
2023-05-01T09:51:27.152Z,100233.44
2023-05-01T09:53:55.423Z,100214.88
2023-05-01T09:56:22.786Z,100215.69
2023-05-01T09:58:50.543Z,100212.19
2023-05-01T10:01:18.120Z,100207.75
2023-05-01T10:03:46.316Z,100200.75
2023-05-01T10:06:25.891Z,100201.41
2023-05-01T10:08:54.360Z,100202.72
2023-05-01T10:11:22.781Z,100199.28
2023-05-01T10:14:06.608Z,100193.28
2023-05-01T10:16:34.643Z,100194.28
2023-05-01T10:19:04.146Z,100198.34
2023-05-01T10:21:33.223Z,100185.50
2023-05-01T10:24:01.739Z,100181.59
2023-05-01T10:26:29.482Z,100188.75
2023-05-01T10:28:59.518Z,100182.59
2023-05-01T10:31:27.907Z,100179.56
2023-05-01T10:33:55.479Z,100176.09
2023-05-01T10:36:26.332Z,100172.69
2023-05-01T10:38:53.777Z,100174.09
2023-05-01T10:41:39.932Z,100178.19
2023-05-01T10:44:19.658Z,100175.50
2023-05-01T10:46:47.114Z,100170.31
2023-05-01T10:49:14.731Z,100173.59
2023-05-01T10:52:00.988Z,100169.88
2023-05-01T10:54:28.895Z,100167.06
2023-05-01T10:56:57.104Z,100162.97
2023-05-01T10:59:24.600Z,100171.03
2023-05-01T11:01:52.402Z,100161.31
2023-05-01T11:04:19.553Z,100156.44
2023-05-01T11:07:02.588Z,100145.69
2023-05-01T11:09:58.991Z,100155.50
2023-05-01T11:12:45.170Z,100163.78
2023-05-01T11:15:24.448Z,100148.47
2023-05-01T11:17:52.354Z,100149.06
2023-05-01T11:20:26.000Z,100146.94
2023-05-01T11:22:53.787Z,100151.91
2023-05-01T11:25:21.998Z,100138.59
2023-05-01T11:27:53.116Z,100138.22
2023-05-01T11:30:20.701Z,100140.03
2023-05-01T11:32:49.333Z,100136.41
2023-05-01T11:35:17.432Z,100132.19
2023-05-01T11:37:45.346Z,100130.16
2023-05-01T11:40:19.676Z,100132.88
2023-05-01T11:42:47.075Z,100120.47
2023-05-01T11:45:14.594Z,100125.56
2023-05-01T11:47:41.914Z,100126.34
2023-05-01T11:50:10.292Z,100122.37
2023-05-01T11:52:48.752Z,100116.34
2023-05-01T11:55:16.788Z,100115.72
2023-05-01T11:57:47.906Z,100119.75
2023-05-01T12:00:15.829Z,100111.63
2023-05-01T12:03:15.746Z,100104.38
2023-05-01T12:05:43.850Z,100107.31
2023-05-01T12:08:12.855Z,100103.81
2023-05-01T12:10:42.055Z,100103.91
2023-05-01T12:13:09.937Z,100107.63
2023-05-01T12:15:38.772Z,100097.94
2023-05-01T12:18:06.183Z,100100.09
2023-05-01T12:20:37.861Z,100090.34
2023-05-01T12:23:05.998Z,100091.09
2023-05-01T12:25:37.728Z,100091.72
2023-05-01T12:28:15.537Z,100092.28
2023-05-01T12:30:43.780Z,100096.94
2023-05-01T12:33:12.828Z,100087.00
2023-05-01T12:35:40.564Z,100085.03
2023-05-01T12:38:23.623Z,100075.78
2023-05-01T12:40:55.235Z,100079.72
2023-05-01T12:43:23.060Z,100077.13
2023-05-01T12:45:51.725Z,100069.75
2023-05-01T12:48:19.372Z,100068.56
2023-05-01T12:50:48.104Z,100053.78
2023-05-01T12:53:16.330Z,100073.47
2023-05-01T12:55:45.776Z,100059.56
2023-05-01T12:58:12.978Z,100056.69
2023-05-01T13:00:44.296Z,100050.75
2023-05-01T13:03:11.674Z,100045.13
2023-05-01T13:05:59.438Z,100038.69
2023-05-01T13:08:28.932Z,100043.03
2023-05-01T13:10:57.382Z,100037.84
2023-05-01T13:13:26.060Z,100035.62
2023-05-01T13:15:53.956Z,100026.63
2023-05-01T13:18:21.649Z,100027.47
2023-05-01T13:20:48.893Z,100026.25
2023-05-01T13:23:16.385Z,100030.31
2023-05-01T13:25:43.725Z,100027.56
2023-05-01T13:28:11.748Z,100023.81
2023-05-01T13:30:39.366Z,100025.56
2023-05-01T13:33:07.826Z,100020.19
2023-05-01T13:35:35.828Z,100011.09
2023-05-01T13:38:03.290Z,100016.28
2023-05-01T13:40:30.452Z,99999.56
2023-05-01T13:42:57.631Z,100008.53
2023-05-01T13:45:25.063Z,100005.88
2023-05-01T13:47:52.391Z,99995.50
2023-05-01T13:50:19.689Z,100000.69
2023-05-01T13:52:47.671Z,99998.34
2023-05-01T13:55:14.885Z,99997.12
2023-05-01T13:57:43.194Z,99998.16
2023-05-01T14:00:15.778Z,99983.66
2023-05-01T14:02:50.392Z,99982.44
2023-05-01T14:05:17.602Z,99987.06
2023-05-01T14:07:46.477Z,99985.53
2023-05-01T14:10:13.633Z,99981.50
2023-05-01T14:12:40.871Z,99977.41
2023-05-01T14:15:09.075Z,99983.34
2023-05-01T14:17:37.868Z,99985.22
2023-05-01T14:20:05.661Z,99976.13
2023-05-01T14:22:43.320Z,99967.84
2023-05-01T14:25:17.326Z,99973.62
2023-05-01T14:27:44.813Z,99967.59
2023-05-01T14:30:14.220Z,99970.31
2023-05-01T14:32:41.924Z,99963.37
2023-05-01T14:35:09.565Z,99951.16
2023-05-01T14:37:37.544Z,99956.88
2023-05-01T14:40:06.236Z,99958.94
2023-05-01T14:42:34.532Z,99950.31
2023-05-01T14:45:01.683Z,99957.88
2023-05-01T14:47:29.162Z,99952.00
2023-05-01T14:49:56.551Z,99947.94
2023-05-01T14:52:23.708Z,99945.59
2023-05-01T14:54:53.180Z,99943.75
2023-05-01T14:57:20.690Z,99948.19
2023-05-01T14:59:47.809Z,99949.03
2023-05-01T15:02:15.089Z,99939.06
2023-05-01T15:04:44.740Z,99946.47
2023-05-01T15:07:11.904Z,99937.50
2023-05-01T15:09:41.638Z,99943.62
2023-05-01T15:12:09.876Z,99944.16
2023-05-01T15:14:37.002Z,99941.66
2023-05-01T15:17:04.145Z,99943.69
2023-05-01T15:19:32.305Z,99953.53
2023-05-01T15:21:59.456Z,99947.22
2023-05-01T15:24:26.765Z,99938.25
2023-05-01T15:26:54.218Z,99937.38
2023-05-01T15:29:21.394Z,99931.31
2023-05-01T15:31:53.762Z,99930.94
2023-05-01T15:34:26.126Z,99927.66
2023-05-01T15:36:53.529Z,99924.87
2023-05-01T15:39:20.646Z,99928.53
2023-05-01T15:41:48.395Z,99920.78
2023-05-01T15:44:15.976Z,99934.16
2023-05-01T15:46:43.202Z,99934.97
2023-05-01T15:49:10.712Z,99936.03
2023-05-01T15:51:37.920Z,99933.37
2023-05-01T15:54:05.043Z,99936.09
2023-05-01T15:56:36.905Z,99933.44
2023-05-01T15:59:04.673Z,99930.50
2023-05-01T16:01:32.399Z,99933.56
2023-05-01T16:04:00.241Z,99931.53
2023-05-01T16:06:28.416Z,99926.66
2023-05-01T16:08:55.617Z,99932.03
2023-05-01T16:11:23.122Z,99926.75
2023-05-01T16:13:52.655Z,99931.91
2023-05-01T16:16:22.695Z,99930.50
2023-05-01T16:18:52.716Z,99927.69
2023-05-01T16:21:20.191Z,99927.84
2023-05-01T16:23:47.418Z,99926.13
2023-05-01T16:26:19.101Z,99922.59
2023-05-01T16:28:46.241Z,99925.34
2023-05-01T16:31:26.120Z,99923.66
2023-05-01T16:33:54.928Z,99915.63
2023-05-01T16:36:22.263Z,99910.41
2023-05-01T16:38:49.427Z,99911.25
2023-05-01T16:41:17.266Z,99908.72
2023-05-01T16:43:45.245Z,99914.84
2023-05-01T16:46:13.210Z,99913.09
2023-05-01T16:48:40.878Z,99907.69
2023-05-01T16:51:08.761Z,99916.50
2023-05-01T16:53:35.946Z,99923.59
2023-05-01T16:56:04.039Z,99913.00
2023-05-01T16:58:31.331Z,99914.78
2023-05-01T17:00:58.531Z,99919.25
2023-05-01T17:03:26.889Z,99918.31
2023-05-01T17:05:54.959Z,99917.47
2023-05-01T17:08:22.182Z,99924.53
2023-05-01T17:10:50.041Z,99918.38
2023-05-01T17:13:17.604Z,99919.25
2023-05-01T17:15:45.158Z,99914.84
2023-05-01T17:18:12.729Z,99914.00
2023-05-01T17:20:39.934Z,99914.88
2023-05-01T17:23:07.638Z,99928.94
2023-05-01T17:25:35.583Z,99924.53
2023-05-01T17:28:02.731Z,99920.13
2023-05-01T17:30:29.872Z,99909.59
2023-05-01T17:32:57.627Z,99910.47
2023-05-01T17:35:24.947Z,99913.09
2023-05-01T17:37:52.133Z,99907.84
2023-05-01T17:40:19.731Z,99911.31
2023-05-01T17:42:46.919Z,99910.47
2023-05-01T17:45:17.409Z,99906.06
2023-05-01T17:47:46.545Z,99907.81
2023-05-01T17:50:13.842Z,99907.72
2023-05-01T17:52:41.441Z,99905.06
2023-05-01T17:55:09.822Z,99906.03
2023-05-01T17:57:38.825Z,99904.25
2023-05-01T18:00:07.230Z,99914.66
2023-05-01T18:02:39.946Z,99915.44
2023-05-01T18:05:08.309Z,99924.31
2023-05-01T18:07:35.537Z,99916.47
2023-05-01T18:10:03.834Z,99915.53
2023-05-01T18:12:35.919Z,99914.66
2023-05-01T18:15:03.666Z,99921.53
2023-05-01T18:17:31.652Z,99917.16
2023-05-01T18:20:11.926Z,99923.13
2023-05-01T18:22:39.964Z,99917.87
2023-05-01T18:25:07.670Z,99923.13
2023-05-01T18:27:38.406Z,99923.88
2023-05-01T18:30:05.953Z,99917.94
2023-05-01T18:32:46.361Z,99929.06
2023-05-01T18:35:17.663Z,99922.25
2023-05-01T18:37:47.039Z,99936.97
2023-05-01T18:40:14.633Z,99935.16
2023-05-01T18:42:43.507Z,99931.59
2023-05-01T18:45:11.679Z,99936.72
2023-05-01T18:47:39.939Z,99933.16
2023-05-01T18:50:07.985Z,99935.03
2023-05-01T18:52:37.538Z,99947.31
2023-05-01T18:55:07.040Z,99945.41
2023-05-01T18:57:37.928Z,99944.50
2023-05-01T19:00:07.983Z,99945.34
2023-05-01T19:02:35.688Z,99952.06
2023-05-01T19:05:03.699Z,99951.81
2023-05-01T19:07:32.325Z,99957.19
2023-05-01T19:10:00.958Z,99950.63
2023-05-01T19:12:31.298Z,99955.97
2023-05-01T19:14:59.962Z,99957.41
2023-05-01T19:17:29.131Z,99952.75
2023-05-01T19:20:00.147Z,99964.94
2023-05-01T19:22:28.604Z,99962.31
2023-05-01T19:24:56.649Z,99955.25
2023-05-01T19:27:26.214Z,99960.53
2023-05-01T19:29:57.451Z,99958.56
2023-05-01T19:32:25.885Z,99961.09
2023-05-01T19:34:55.562Z,99959.22
2023-05-01T19:37:24.421Z,99960.53
2023-05-01T19:39:52.646Z,99955.03
2023-05-01T19:42:23.889Z,99959.56
2023-05-01T19:44:54.720Z,99960.31
2023-05-01T19:47:23.323Z,99952.78
2023-05-01T19:49:51.781Z,99959.34
2023-05-01T19:52:20.050Z,99962.87
2023-05-01T19:54:47.828Z,99969.09
2023-05-01T19:57:16.562Z,99958.84
2023-05-01T19:59:44.573Z,99963.94
2023-05-01T20:02:12.616Z,99968.75
2023-05-01T20:04:40.692Z,99971.00
2023-05-01T20:07:08.050Z,99969.78
2023-05-01T20:09:36.204Z,99971.19
2023-05-01T20:12:04.124Z,99961.94
2023-05-01T20:14:33.956Z,99976.41
2023-05-01T20:17:01.449Z,99969.72
2023-05-01T20:19:29.620Z,99972.28
2023-05-01T20:21:57.144Z,99972.25
2023-05-01T20:24:25.022Z,99970.25
2023-05-01T20:26:55.920Z,99979.81
2023-05-01T20:29:23.513Z,99975.16
2023-05-01T20:31:53.699Z,99971.59
2023-05-01T20:34:22.191Z,99973.19
2023-05-01T20:36:49.487Z,99976.41
2023-05-01T20:39:16.838Z,99967.34
2023-05-01T20:41:45.027Z,99970.31
2023-05-01T20:44:12.923Z,99974.94
2023-05-01T20:46:40.944Z,99970.66
2023-05-01T20:49:10.164Z,99974.94
2023-05-01T20:51:38.423Z,99975.63
2023-05-01T20:54:06.147Z,99982.28
2023-05-01T20:56:33.818Z,99989.19
2023-05-01T20:59:03.247Z,99982.88
2023-05-01T21:01:33.759Z,99984.97
2023-05-01T21:04:01.612Z,99982.88
2023-05-01T21:06:31.822Z,99992.09
2023-05-01T21:09:00.618Z,99990.25
2023-05-01T21:11:28.547Z,99986.81
2023-05-01T21:13:57.599Z,99987.81
2023-05-01T21:16:27.584Z,99995.38
2023-05-01T21:18:55.351Z,99993.78
2023-05-01T21:21:24.939Z,99988.47
2023-05-01T21:23:52.742Z,99994.16
2023-05-01T21:26:21.386Z,99999.69
2023-05-01T21:28:48.769Z,99997.94
2023-05-01T21:31:16.310Z,100001.94
2023-05-01T21:33:45.814Z,99993.19
2023-05-01T21:36:14.190Z,99999.13
2023-05-01T21:38:41.592Z,100005.47
2023-05-01T21:41:12.726Z,100002.31
2023-05-01T21:43:40.107Z,100005.12
2023-05-01T21:46:11.851Z,100009.41
2023-05-01T21:48:39.735Z,100007.28
2023-05-01T21:51:07.115Z,100011.31
2023-05-01T21:53:34.750Z,99999.09
2023-05-01T21:56:03.151Z,100005.19
2023-05-01T21:58:30.525Z,100001.03
2023-05-01T22:00:57.969Z,99999.41
2023-05-01T22:03:25.927Z,100004.56
2023-05-01T22:05:53.447Z,100006.41
2023-05-01T22:08:20.867Z,100016.72
2023-05-01T22:10:48.903Z,100008.66
2023-05-01T22:13:16.283Z,100011.22
2023-05-01T22:15:43.692Z,100005.06
2023-05-01T22:18:11.535Z,99999.06
2023-05-01T22:20:38.908Z,100005.53
2023-05-01T22:23:06.444Z,99999.63
2023-05-01T22:25:34.232Z,100001.12
2023-05-01T22:28:04.288Z,100002.44
2023-05-01T22:30:34.758Z,99997.00
2023-05-01T22:33:02.375Z,99994.84
2023-05-01T22:35:30.250Z,99999.34
2023-05-01T22:37:58.169Z,99997.44
2023-05-01T22:40:26.311Z,99995.31
2023-05-01T22:42:53.648Z,99996.28
2023-05-01T22:45:21.067Z,99998.72
2023-05-01T22:47:48.741Z,99993.75
2023-05-01T22:50:16.498Z,99990.16
2023-05-01T22:52:45.813Z,99998.16
2023-05-01T22:55:14.148Z,99996.50
2023-05-01T22:57:41.619Z,99984.94
2023-05-01T23:00:11.914Z,99986.97
2023-05-01T23:02:39.944Z,99992.09
2023-05-01T23:05:08.275Z,99987.34
2023-05-01T23:07:35.666Z,99993.53
2023-05-01T23:10:03.542Z,99991.44
2023-05-01T23:12:31.765Z,99992.06
2023-05-01T23:14:59.451Z,99991.88
2023-05-01T23:17:32.141Z,99992.22
2023-05-01T23:20:00.255Z,99992.09
2023-05-01T23:22:30.076Z,99991.16
2023-05-01T23:24:57.515Z,99989.62
2023-05-01T23:27:25.189Z,99993.50
2023-05-01T23:29:58.286Z,99992.34
2023-05-01T23:32:28.311Z,99998.97
2023-05-01T23:35:00.943Z,99991.28
2023-05-01T23:37:28.315Z,99987.00
2023-05-01T23:39:58.603Z,99986.69
2023-05-01T23:42:26.268Z,99987.56
2023-05-01T23:44:55.105Z,99992.69
2023-05-01T23:47:22.862Z,99989.28
2023-05-01T23:49:50.800Z,99981.69
2023-05-01T23:52:18.194Z,99998.31
2023-05-01T23:54:45.919Z,99994.22
2023-05-01T23:57:13.416Z,99985.87
2023-05-01T23:59:40.865Z,99988.56
